Terminal Aerodrome Forecast
Issued by NWS Twin Cities, MN

Home | Current Version | Previous Version | Graphics & Text | Print | Product List | Glossary On
Versions: 1 2 3 4 5 6 7 8 9 10 11 12 13 14 15 16 17 18
000
FTUS43 KMPX 162300
TAFSTC
TAF
KSTC 162332Z 1700/1724 04012G18KT 1SM -SN SCT007 BKN015 OVC030
      TEMPO 1700/1702 1/2SM -SN FZFG SCT007 OVC015
     FM170300 36012G18KT 4SM -SN OVC015
     FM170600 33011KT P6SM OVC020
     FM172100 33005KT P6SM BKN050=

USA.gov is the U.S. government's official web portal to all federal, state and local government web resources and services.